Time;durP1;ratioP1;P1;durP2;ratioP2;P2;SDS_P1;SDS_P2;PMS_P1;PMS_P2;Temp;Humidity;BMP_temperature;BMP_pressure;BME280_temperature;BME280_humidity;BME280_pressure;Samples;Min_cycle;Max_cycle;Signal;HPM_P1;HPM_P2
2022/01/19 00:00:46;;;;;;;;;22.00;18.00;;;;;12.79;61.80;102782.56;5082714;28;61677;-83
2022/01/19 00:03:12;;;;;;;;;20.00;17.75;;;;;12.81;61.77;102786.22;5081611;28;61831;-84
2022/01/19 00:05:38;;;;;;;;;19.50;17.00;;;;;12.80;61.67;102779.09;5081312;27;62334;-83
2022/01/19 00:08:04;;;;;;;;;25.75;17.25;;;;;12.83;61.97;102781.94;5081993;28;62758;-83
2022/01/19 00:10:30;;;;;;;;;26.25;18.50;;;;;12.84;62.05;102783.75;5098606;27;61861;-84
2022/01/19 00:12:56;;;;;;;;;19.50;17.25;;;;;12.87;61.85;102777.78;5081885;28;62315;-84
2022/01/19 00:15:23;;;;;;;;;20.75;17.25;;;;;12.92;61.50;102783.34;5083106;27;61914;-84
2022/01/19 00:17:54;;;;;;;;;22.50;18.00;;;;;12.93;61.90;102766.75;5080611;28;63380;-83
2022/01/19 00:20:20;;;;;;;;;21.50;18.50;;;;;12.91;61.74;102761.38;5082127;27;62137;-83
2022/01/19 00:22:46;;;;;;;;;22.50;20.25;;;;;12.85;61.36;102738.16;5082842;28;61754;-84
2022/01/19 00:25:11;;;;;;;;;23.25;17.50;;;;;12.90;61.54;102730.56;5082312;28;61772;-83
2022/01/19 00:27:37;;;;;;;;;19.25;14.00;;;;;12.86;61.45;102721.53;5081335;28;61851;-83
2022/01/19 00:30:03;;;;;;;;;24.50;16.75;;;;;12.88;61.21;102713.72;5080836;28;61863;-84
2022/01/19 00:32:29;;;;;;;;;19.00;16.75;;;;;12.86;61.29;102705.72;5082613;28;62037;-84
2022/01/19 00:34:55;;;;;;;;;20.75;16.50;;;;;12.86;61.74;102697.81;5080743;28;62160;-84
2022/01/19 00:37:21;;;;;;;;;21.75;17.00;;;;;12.85;61.26;102693.38;5069345;28;62142;-83
2022/01/19 00:39:46;;;;;;;;;18.00;16.75;;;;;12.85;61.23;102693.38;5082177;28;61993;-83
2022/01/19 00:42:12;;;;;;;;;20.75;17.50;;;;;12.85;61.34;102705.59;5079264;28;61842;-84
2022/01/19 00:44:38;;;;;;;;;24.75;18.75;;;;;12.81;61.57;102709.78;5081230;28;62330;-84
2022/01/19 00:47:04;;;;;;;;;21.50;18.50;;;;;12.82;61.32;102722.13;5081414;28;62087;-84
2022/01/19 00:49:30;;;;;;;;;22.25;18.00;;;;;12.80;61.64;102712.31;5080625;28;61775;-84
2022/01/19 00:51:55;;;;;;;;;20.25;18.25;;;;;12.80;61.35;102712.31;5097542;27;61830;-84
2022/01/19 00:54:20;;;;;;;;;22.50;19.00;;;;;12.82;61.27;102715.94;5082467;28;61641;-84
2022/01/19 00:56:46;;;;;;;;;20.25;17.50;;;;;12.79;61.25;102719.31;5080523;28;62444;-84
2022/01/19 00:59:12;;;;;;;;;17.50;15.50;;;;;12.79;61.49;102727.22;5081642;28;61809;-84
2022/01/19 01:01:37;;;;;;;;;24.75;18.50;;;;;12.85;61.62;102731.97;5082144;28;62011;-83
2022/01/19 01:04:03;;;;;;;;;18.50;17.25;;;;;12.82;61.46;102711.59;5097518;27;62006;-84
2022/01/19 01:06:29;;;;;;;;;21.25;17.00;;;;;12.82;60.95;102703.69;5079607;28;63905;-84
2022/01/19 01:08:54;;;;;;;;;23.25;16.00;;;;;12.83;60.47;102707.22;5081652;28;61855;-84
2022/01/19 01:11:28;;;;;;;;;19.50;16.75;;;;;12.81;60.93;102700.94;5081482;28;62024;-84
2022/01/19 01:18:57;;;;;;;;;16.25;14.50;;;;;12.82;61.57;102679.97;5081589;27;61990;-84
2022/01/19 01:21:22;;;;;;;;;22.00;18.50;;;;;12.85;61.35;102680.19;5080122;28;61892;-84
2022/01/19 01:23:48;;;;;;;;;26.50;19.00;;;;;12.85;61.25;102671.34;5081612;28;61962;-83
2022/01/19 01:26:13;;;;;;;;;22.25;18.25;;;;;12.82;61.34;102656.25;5095675;27;63419;-83
2022/01/19 01:28:39;;;;;;;;;26.00;21.75;;;;;12.85;61.44;102672.28;5080008;28;61901;-85
2022/01/19 01:31:07;;;;;;;;;21.00;18.00;;;;;12.86;61.39;102678.44;5081474;28;62289;-84
2022/01/19 01:33:33;;;;;;;;;22.50;19.25;;;;;12.87;61.52;102685.53;5081804;27;61761;-84
2022/01/19 01:35:59;;;;;;;;;23.25;19.75;;;;;12.85;61.30;102682.81;5075718;28;63585;-84
2022/01/19 01:38:24;;;;;;;;;29.00;18.75;;;;;12.85;61.25;102685.44;5106465;27;61965;-83
2022/01/19 01:40:50;;;;;;;;;20.25;18.00;;;;;12.85;61.25;102689.78;5081589;27;62038;-84
2022/01/19 01:43:15;;;;;;;;;16.75;16.75;;;;;12.85;60.83;102687.16;5081538;28;61824;-84
2022/01/19 01:45:45;;;;;;;;;22.50;19.75;;;;;12.86;60.88;102682.00;5080715;28;61900;-84
2022/01/19 01:48:16;;;;;;;;;18.00;17.00;;;;;12.88;61.24;102676.81;5096809;27;62413;-84
2022/01/19 01:53:29;;;;;;;;;26.25;18.75;;;;;12.87;60.90;102668.03;5082627;28;61791;-84
2022/01/19 01:56:10;;;;;;;;;20.25;17.00;;;;;12.87;61.31;102669.72;5084185;28;62673;-84
2022/01/19 01:58:38;;;;;;;;;24.50;20.50;;;;;12.83;60.41;102658.09;5084906;28;62043;-84
2022/01/19 02:01:05;;;;;;;;;27.75;26.25;;;;;12.79;60.88;102660.38;5084735;28;61812;-84
2022/01/19 02:03:37;;;;;;;;;27.00;23.00;;;;;12.77;60.52;102656.75;5084709;28;61736;-84
2022/01/19 02:08:56;;;;;;;;;23.50;19.50;;;;;12.76;60.80;102645.31;5084257;27;61950;-83
2022/01/19 02:25:44;;;;;;;;;21.50;18.00;;;;;12.66;61.26;102609.56;5083985;28;61870;-83
2022/01/19 02:41:51;;;;;;;;;19.50;19.50;;;;;12.64;60.69;102570.75;5084258;28;61835;-83
2022/01/19 02:44:31;;;;;;;;;28.00;21.25;;;;;12.61;60.65;102563.53;5084212;28;61954;-84
2022/01/19 02:49:40;;;;;;;;;21.00;19.00;;;;;12.62;60.64;102557.47;5082907;28;61958;-84
2022/01/19 02:52:06;;;;;;;;;20.50;19.25;;;;;12.66;60.76;102555.91;5082115;28;61811;-83
2022/01/19 02:54:33;;;;;;;;;23.25;20.00;;;;;12.56;60.19;102546.53;5084021;28;61886;-83
2022/01/19 02:57:01;;;;;;;;;28.25;22.25;;;;;12.61;60.74;102554.72;5082212;28;62111;-83
2022/01/19 03:10:20;;;;;;;;;24.25;20.25;;;;;12.67;60.94;102547.22;5083164;28;62319;-83
2022/01/19 03:12:46;;;;;;;;;34.50;22.00;;;;;12.62;60.24;102530.22;5083759;28;61978;-84
2022/01/19 03:15:13;;;;;;;;;26.75;17.00;;;;;12.64;60.75;102537.41;5083885;28;61836;-83
2022/01/19 03:17:39;;;;;;;;;26.50;23.50;;;;;12.60;60.69;102538.03;5083902;28;62048;-84
2022/01/19 03:20:07;;;;;;;;;25.00;21.00;;;;;12.58;60.32;102536.09;5082161;28;62668;-83
2022/01/19 03:22:42;;;;;;;;;30.00;23.25;;;;;12.49;60.54;102531.16;5082249;28;61800;-84
2022/01/19 03:25:12;;;;;;;;;25.25;19.50;;;;;12.44;60.58;102525.56;5081621;28;61974;-82
2022/01/19 03:27:46;;;;;;;;;22.00;19.75;;;;;12.40;60.58;102523.56;5081945;28;62237;-84
2022/01/19 03:30:12;;;;;;;;;25.50;20.75;;;;;12.33;60.41;102516.06;5082712;28;62031;-84
2022/01/19 03:32:37;;;;;;;;;22.00;19.75;;;;;12.38;60.57;102522.56;5082064;28;61852;-83
2022/01/19 03:35:03;;;;;;;;;25.75;21.25;;;;;12.41;60.83;102528.00;5081240;28;62479;-83
2022/01/19 03:37:29;;;;;;;;;26.50;23.75;;;;;12.47;60.95;102533.69;5083220;28;62077;-83
2022/01/19 03:39:54;;;;;;;;;22.25;18.50;;;;;12.51;60.64;102523.31;5082456;27;62348;-83
2022/01/19 03:42:20;;;;;;;;;27.00;20.25;;;;;12.50;60.36;102527.69;5083069;28;62078;-83
2022/01/19 03:44:45;;;;;;;;;25.75;20.25;;;;;12.53;60.35;102524.34;5083238;27;61909;-83
2022/01/19 03:47:11;;;;;;;;;26.25;21.75;;;;;12.55;60.31;102523.63;5083150;27;61776;-83
2022/01/19 03:49:36;;;;;;;;;20.25;20.25;;;;;12.56;60.73;102524.56;5081795;28;62391;-83
2022/01/19 03:52:05;;;;;;;;;25.25;20.50;;;;;12.56;60.36;102514.91;5082506;27;61981;-83
2022/01/19 03:54:43;;;;;;;;;29.75;22.75;;;;;12.56;60.48;102511.38;5081771;28;61869;-83
2022/01/19 03:57:09;;;;;;;;;20.50;20.00;;;;;12.54;60.36;102511.28;5082665;27;62297;-84
2022/01/19 03:59:35;;;;;;;;;24.25;21.00;;;;;12.56;60.82;102517.56;5082352;27;61971;-83
2022/01/19 04:02:01;;;;;;;;;26.50;21.50;;;;;12.53;60.83;102496.28;5082665;28;61786;-83
2022/01/19 04:09:31;;;;;;;;;24.75;20.25;;;;;12.56;60.63;102500.84;5082014;27;61951;-83
2022/01/19 04:11:57;;;;;;;;;20.00;18.25;;;;;12.56;60.52;102496.47;5081364;28;61752;-83
2022/01/19 04:14:25;;;;;;;;;24.75;18.75;;;;;12.58;60.79;102494.84;5082975;27;61769;-83
2022/01/19 04:16:52;;;;;;;;;22.50;21.50;;;;;12.61;60.32;102499.41;5082809;27;62002;-83
2022/01/19 04:19:24;;;;;;;;;24.50;21.75;;;;;12.62;60.34;102496.88;5080110;28;64751;-84
2022/01/19 04:21:51;;;;;;;;;31.00;21.25;;;;;12.57;60.34;102489.47;5080629;28;61964;-83
2022/01/19 04:24:17;;;;;;;;;25.00;15.75;;;;;12.54;60.26;102497.19;5082753;27;61823;-84
2022/01/19 04:26:44;;;;;;;;;28.50;24.25;;;;;12.55;61.05;102501.63;5081077;28;61995;-83
2022/01/19 04:29:09;;;;;;;;;24.75;20.00;;;;;12.58;60.54;102499.22;5081627;27;61690;-83
2022/01/19 04:31:35;;;;;;;;;28.00;20.50;;;;;12.58;60.46;102500.13;5081315;28;61902;-84
2022/01/19 04:34:04;;;;;;;;;24.50;21.00;;;;;12.63;60.75;102505.69;5081802;28;62010;-84
2022/01/19 04:44:58;;;;;;;;;19.25;18.00;;;;;12.55;60.36;102506.91;5039469;28;62329;-83
2022/01/19 05:04:10;;;;;;;;;28.75;21.50;;;;;12.13;61.91;102500.72;4959948;28;61893;-83
2022/01/19 05:06:40;;;;;;;;;23.25;20.00;;;;;12.09;61.68;102496.03;4959572;28;62018;-83
2022/01/19 05:09:11;;;;;;;;;33.25;24.50;;;;;12.04;62.08;102496.66;4960055;28;62201;-83
2022/01/19 05:14:20;;;;;;;;;28.75;22.50;;;;;12.03;62.24;102502.72;4959793;28;61843;-83
2022/01/19 05:16:46;;;;;;;;;28.25;22.50;;;;;12.00;62.27;102497.25;4943352;28;62088;-83
2022/01/19 05:19:12;;;;;;;;;30.75;23.75;;;;;12.01;62.24;102500.78;4968656;28;62459;-83
2022/01/19 05:21:37;;;;;;;;;24.00;21.50;;;;;12.00;62.37;102502.53;4998147;28;62030;-83
2022/01/19 05:24:04;;;;;;;;;31.25;26.00;;;;;12.01;62.64;102503.44;4999068;28;61780;-84
2022/01/19 05:26:35;;;;;;;;;30.25;21.00;;;;;12.02;62.46;102502.63;5018944;28;62311;-83
2022/01/19 05:29:01;;;;;;;;;31.75;24.00;;;;;11.97;62.55;102501.41;5081031;28;62174;-83
2022/01/19 05:31:26;;;;;;;;;18.00;15.50;;;;;11.91;62.46;102495.72;5080313;28;61872;-83
2022/01/19 05:33:53;;;;;;;;;32.50;29.75;;;;;11.93;62.71;102488.84;5081620;28;61816;-84
2022/01/19 05:36:19;;;;;;;;;27.00;22.00;;;;;11.96;62.85;102503.13;5080958;28;61762;-83
2022/01/19 05:38:44;;;;;;;;;30.50;27.75;;;;;11.95;62.88;102487.22;5081363;28;61703;-84
2022/01/19 05:41:09;;;;;;;;;29.25;26.25;;;;;11.93;63.16;102486.22;5079405;28;63737;-83
2022/01/19 05:43:35;;;;;;;;;29.00;25.50;;;;;11.83;63.25;102493.47;5081116;28;61751;-83
2022/01/19 05:46:01;;;;;;;;;42.75;29.25;;;;;11.85;63.43;102489.22;5081037;28;62441;-83
2022/01/19 05:48:26;;;;;;;;;34.50;26.25;;;;;11.82;63.53;102494.25;5079920;28;61840;-84
2022/01/19 05:50:52;;;;;;;;;34.50;26.50;;;;;11.80;63.76;102498.53;5079146;28;62530;-83
2022/01/19 05:53:17;;;;;;;;;40.25;31.00;;;;;11.75;63.79;102494.66;5079973;28;61883;-83
2022/01/19 05:55:44;;;;;;;;;36.50;33.50;;;;;11.72;64.07;102493.53;5080742;28;61896;-83
2022/01/19 05:58:09;;;;;;;;;48.50;34.00;;;;;11.61;64.29;102491.13;5081359;28;61776;-83
2022/01/19 06:00:35;;;;;;;;;38.00;23.50;;;;;11.50;64.38;102493.81;5080008;28;62376;-83
2022/01/19 06:03:01;;;;;;;;;47.75;37.50;;;;;11.44;64.55;102486.44;5096605;27;62011;-83
2022/01/19 06:05:26;;;;;;;;;45.50;31.50;;;;;11.53;64.49;102487.06;5080901;28;61811;-83
2022/01/19 06:08:09;;;;;;;;;40.00;35.00;;;;;11.57;64.52;102496.06;5081274;28;61865;-83
2022/01/19 06:10:43;;;;;;;;;41.00;33.00;;;;;11.56;64.46;102496.88;5078852;28;63657;-84
2022/01/19 06:13:10;;;;;;;;;31.75;22.75;;;;;11.53;64.77;102492.31;5081282;28;62100;-83
2022/01/19 06:15:35;;;;;;;;;36.00;32.50;;;;;11.57;64.67;102494.34;5080640;27;62118;-83
2022/01/19 06:18:02;;;;;;;;;52.00;34.75;;;;;11.54;64.69;102496.75;5081163;28;61879;-79
2022/01/19 06:20:29;;;;;;;;;43.50;35.50;;;;;11.54;65.05;102480.97;5079898;28;61815;-77
2022/01/19 06:22:55;;;;;;;;;45.75;37.00;;;;;11.60;64.94;102488.38;5080826;28;61867;-78
2022/01/19 06:25:20;;;;;;;;;49.25;37.50;;;;;11.65;64.89;102494.84;5080518;28;61843;-80
2022/01/19 06:27:46;;;;;;;;;44.75;34.75;;;;;11.69;64.96;102477.56;5079506;28;62085;-79
2022/01/19 06:30:12;;;;;;;;;43.25;30.50;;;;;11.72;64.80;102478.69;5079802;27;62777;-79
2022/01/19 06:32:38;;;;;;;;;46.50;34.75;;;;;11.72;64.55;102480.38;5079396;28;61783;-79
2022/01/19 06:35:04;;;;;;;;;44.25;35.75;;;;;11.56;65.03;102486.34;5080689;28;61993;-80
2022/01/19 06:37:29;;;;;;;;;48.25;34.50;;;;;11.52;65.51;102482.59;5079162;28;62235;-81
2022/01/19 06:39:55;;;;;;;;;36.50;33.00;;;;;11.61;65.06;102483.22;5080983;28;61919;-81
2022/01/19 06:42:20;;;;;;;;;30.00;29.25;;;;;11.70;65.24;102479.38;5083943;28;61964;-80
2022/01/19 06:44:46;;;;;;;;;43.75;37.25;;;;;11.78;64.82;102475.53;5083707;27;61991;-79
2022/01/19 06:47:11;;;;;;;;;37.00;33.75;;;;;11.85;64.86;102469.91;5084180;28;61867;-79
2022/01/19 06:49:37;;;;;;;;;47.00;35.75;;;;;11.76;64.48;102466.63;5078543;28;62152;-81
2022/01/19 06:52:04;;;;;;;;;50.00;38.25;;;;;11.76;64.93;102479.78;5071742;27;61927;-82
2022/01/19 06:54:30;;;;;;;;;39.75;36.00;;;;;11.80;64.87;102472.22;5075236;28;61840;-81
2022/01/19 06:56:55;;;;;;;;;44.25;36.75;;;;;11.76;64.77;102475.47;5098816;27;61787;-81
2022/01/19 06:59:21;;;;;;;;;43.50;36.00;;;;;11.67;64.83;102472.19;5063926;27;61728;-81
2022/01/19 07:01:46;;;;;;;;;43.50;34.50;;;;;11.51;65.70;102472.00;5063145;28;61785;-81
2022/01/19 07:04:15;;;;;;;;;44.75;35.25;;;;;11.61;65.42;102477.97;5061913;28;61881;-81
2022/01/19 07:06:40;;;;;;;;;36.25;31.25;;;;;11.55;65.66;102477.56;5069766;28;62352;-79
2022/01/19 07:09:06;;;;;;;;;42.50;36.75;;;;;11.56;65.67;102476.72;5082977;27;61966;-79
2022/01/19 07:11:31;;;;;;;;;44.75;37.75;;;;;11.52;65.77;102477.31;5082315;28;61949;-81
2022/01/19 07:13:57;;;;;;;;;43.25;35.25;;;;;11.51;65.88;102475.53;5083046;27;62230;-78
2022/01/19 07:16:23;;;;;;;;;39.50;33.00;;;;;11.56;65.79;102474.09;5083724;27;61999;-80
2022/01/19 07:18:49;;;;;;;;;37.50;30.25;;;;;11.65;65.53;102472.13;5082430;28;62306;-79
2022/01/19 07:21:14;;;;;;;;;42.50;34.25;;;;;11.74;65.53;102473.50;5099000;27;61935;-80
2022/01/19 07:23:40;;;;;;;;;40.00;35.25;;;;;11.69;65.54;102475.84;5091377;27;62061;-80
2022/01/19 07:26:06;;;;;;;;;50.25;34.75;;;;;11.68;65.77;102483.66;5062245;28;61737;-79
2022/01/19 07:28:31;;;;;;;;;43.00;32.75;;;;;11.74;65.55;102484.03;5060977;28;62847;-80
2022/01/19 07:30:57;;;;;;;;;56.75;43.50;;;;;11.70;65.73;102487.25;5062715;28;61993;-80
2022/01/19 07:33:22;;;;;;;;;48.75;37.00;;;;;11.68;65.88;102488.91;5062975;28;61874;-79
2022/01/19 07:35:51;;;;;;;;;45.75;36.50;;;;;11.61;65.85;102496.38;5062769;28;61951;-80
2022/01/19 07:38:18;;;;;;;;;43.50;39.50;;;;;11.56;66.17;102488.97;5072763;28;63202;-80
2022/01/19 07:40:43;;;;;;;;;34.25;30.00;;;;;11.51;66.48;102487.78;5098370;27;61839;-80
2022/01/19 07:43:09;;;;;;;;;51.75;38.00;;;;;11.58;66.18;102484.72;5081509;28;61747;-82
2022/01/19 07:45:35;;;;;;;;;46.50;34.25;;;;;11.64;66.23;102488.69;5081952;28;61837;-81
2022/01/19 07:48:05;;;;;;;;;44.75;37.50;;;;;11.64;66.31;102485.16;5093335;27;63782;-81
2022/01/19 07:50:35;;;;;;;;;44.00;36.50;;;;;11.77;66.30;102487.78;5078740;28;62084;-77
2022/01/19 07:53:02;;;;;;;;;37.25;31.75;;;;;11.81;65.94;102479.28;5096252;27;62090;-78
2022/01/19 07:55:27;;;;;;;;;49.00;33.50;;;;;11.84;66.53;102491.75;5096243;27;62291;-77
2022/01/19 07:57:53;;;;;;;;;46.00;33.00;;;;;11.78;66.57;102487.00;5093027;27;63602;-78
2022/01/19 08:00:19;;;;;;;;;47.00;37.00;;;;;11.82;66.44;102488.09;5062178;28;61948;-78
2022/01/19 08:02:45;;;;;;;;;51.50;40.50;;;;;11.83;66.28;102480.31;5062111;28;62004;-78
2022/01/19 08:05:11;;;;;;;;;44.75;36.25;;;;;11.87;66.15;102479.72;5062161;28;61785;-79
2022/01/19 08:07:37;;;;;;;;;57.25;36.50;;;;;11.98;66.14;102482.19;5091068;27;64546;-79
2022/01/19 08:10:07;;;;;;;;;49.75;32.50;;;;;12.04;65.67;102486.13;5114632;27;61870;-79
2022/01/19 08:12:33;;;;;;;;;40.00;33.00;;;;;12.02;65.59;102482.47;5115467;27;62163;-79
2022/01/19 08:14:59;;;;;;;;;37.00;33.25;;;;;12.06;65.31;102481.88;5082704;27;62120;-79
2022/01/19 08:17:31;;;;;;;;;40.50;34.00;;;;;12.05;65.41;102487.03;5081225;27;61843;-78
2022/01/19 08:20:02;;;;;;;;;36.75;31.00;;;;;12.09;65.60;102493.41;5080514;28;62034;-78
2022/01/19 08:22:27;;;;;;;;;40.75;37.00;;;;;12.09;65.62;102494.31;5081015;28;61915;-76
2022/01/19 08:24:57;;;;;;;;;37.75;31.25;;;;;12.13;65.47;102493.72;5082135;27;61745;-76
2022/01/19 08:27:23;;;;;;;;;37.75;26.25;;;;;12.13;65.55;102498.06;5081222;28;61945;-78
2022/01/19 08:29:48;;;;;;;;;40.75;32.25;;;;;12.08;65.54;102492.47;5082173;27;61761;-80
2022/01/19 08:32:13;;;;;;;;;35.75;28.50;;;;;12.06;65.65;102495.03;5081735;28;61942;-78
2022/01/19 08:34:39;;;;;;;;;37.75;32.25;;;;;12.11;65.63;102499.69;5082571;27;61869;-77
2022/01/19 08:37:05;;;;;;;;;47.50;35.25;;;;;12.16;65.82;102506.16;5068985;27;62499;-78
2022/01/19 08:39:30;;;;;;;;;39.25;29.75;;;;;12.19;65.61;102503.72;5081587;28;62001;-78
2022/01/19 08:41:56;;;;;;;;;38.25;34.50;;;;;12.17;65.44;102514.16;5082475;28;61926;-77
2022/01/19 08:44:22;;;;;;;;;36.25;29.00;;;;;12.07;65.97;102515.25;5081957;28;61787;-78
2022/01/19 08:46:48;;;;;;;;;44.25;35.00;;;;;12.03;65.88;102520.22;5081396;28;62636;-78
2022/01/19 08:49:15;;;;;;;;;43.25;33.00;;;;;12.05;66.34;102511.63;5081758;28;61831;-77
2022/01/19 08:51:46;;;;;;;;;38.25;32.50;;;;;12.14;65.67;102516.56;5080656;28;61961;-77
2022/01/19 08:54:17;;;;;;;;;37.25;33.00;;;;;12.23;65.96;102516.25;5078284;27;61950;-78
2022/01/19 08:56:42;;;;;;;;;41.50;36.00;;;;;12.32;65.61;102524.78;5096197;27;61935;-78
2022/01/19 08:59:08;;;;;;;;;39.75;31.25;;;;;12.21;65.90;102518.81;5072811;28;61775;-78
2022/01/19 09:01:33;;;;;;;;;41.75;32.50;;;;;12.28;65.63;102517.50;5080408;28;62011;-75
2022/01/19 09:03:58;;;;;;;;;56.00;35.25;;;;;12.35;65.48;102522.34;5078371;27;62077;-77
2022/01/19 09:06:25;;;;;;;;;38.00;31.00;;;;;12.38;65.23;102526.88;5080046;28;61872;-78
2022/01/19 09:08:50;;;;;;;;;46.75;34.25;;;;;12.37;65.39;102531.25;5080673;27;62066;-78
2022/01/19 09:11:16;;;;;;;;;43.25;38.25;;;;;12.33;65.38;102531.88;5081053;27;62081;-78
2022/01/19 09:13:41;;;;;;;;;35.75;29.25;;;;;12.42;65.48;102539.44;5081012;28;62033;-78
2022/01/19 09:16:07;;;;;;;;;44.25;37.50;;;;;12.44;65.64;102532.56;5079803;28;61998;-78
2022/01/19 09:18:33;;;;;;;;;49.50;34.25;;;;;12.54;65.42;102539.34;5081139;27;62079;-78
2022/01/19 09:20:58;;;;;;;;;47.25;37.25;;;;;12.51;65.02;102542.69;5096211;27;62206;-78
2022/01/19 09:23:24;;;;;;;;;40.25;33.50;;;;;12.43;65.09;102536.94;5081421;27;62000;-78
2022/01/19 09:25:50;;;;;;;;;49.00;36.50;;;;;12.40;65.56;102542.00;5079826;28;63112;-78
2022/01/19 09:28:16;;;;;;;;;43.25;33.00;;;;;12.40;65.76;102541.06;5092917;27;62086;-78
2022/01/19 09:30:42;;;;;;;;;46.75;36.25;;;;;12.39;65.13;102549.78;5080342;28;61921;-78
2022/01/19 09:33:19;;;;;;;;;53.00;38.50;;;;;12.40;65.42;102554.25;5081321;27;61944;-78
2022/01/19 09:38:25;;;;;;;;;45.25;34.50;;;;;12.13;65.96;102554.25;5079981;27;62028;-77
2022/01/19 09:40:51;;;;;;;;;39.25;33.50;;;;;12.05;66.31;102551.09;5081273;27;61680;-78
2022/01/19 09:43:21;;;;;;;;;48.00;38.00;;;;;12.05;66.22;102550.19;5081557;28;62264;-78
2022/01/19 09:45:50;;;;;;;;;54.00;41.50;;;;;12.09;66.46;102552.22;5079475;28;61795;-78
2022/01/19 09:48:16;;;;;;;;;45.50;33.75;;;;;12.12;66.42;102538.34;5080373;28;61935;-78
2022/01/19 09:50:42;;;;;;;;;52.00;32.25;;;;;12.16;66.19;102538.66;5078533;28;62403;-78
2022/01/19 09:53:08;;;;;;;;;52.50;43.00;;;;;12.18;66.27;102544.03;5086928;27;62265;-79
2022/01/19 09:55:38;;;;;;;;;43.75;33.50;;;;;12.16;66.14;102556.16;5078570;27;61878;-78
2022/01/19 09:58:04;;;;;;;;;47.00;38.00;;;;;12.14;66.44;102540.28;5077007;28;61853;-79
2022/01/19 10:00:31;;;;;;;;;54.25;39.75;;;;;12.20;66.17;102537.13;5079796;28;61967;-78
2022/01/19 10:03:24;;;;;;;;;37.50;31.75;;;;;12.23;66.04;102538.25;5079371;28;62307;-78
2022/01/19 10:06:02;;;;;;;;;43.25;35.25;;;;;12.28;66.12;102528.03;5102741;27;63375;-74
2022/01/19 10:08:29;;;;;;;;;51.25;34.75;;;;;12.48;65.89;102531.94;5079948;28;63349;-74
2022/01/19 10:11:08;;;;;;;;;40.25;32.75;;;;;12.61;65.16;102529.28;5075183;27;62069;-74
2022/01/19 10:19:14;;;;;;;;;50.25;38.50;;;;;12.83;64.86;102530.66;5079653;28;61946;-74
2022/01/19 10:22:04;;;;;;;;;48.25;37.50;;;;;12.92;64.51;102531.25;5098676;27;61996;-74
2022/01/19 10:24:39;;;;;;;;;35.00;29.25;;;;;13.03;64.37;102527.56;5092676;27;61953;-74
2022/01/19 10:27:19;;;;;;;;;39.25;34.50;;;;;13.06;64.23;102538.28;5091158;27;61913;-74
2022/01/19 10:29:47;;;;;;;;;41.75;35.75;;;;;13.04;63.75;102533.72;5082238;27;61886;-74
2022/01/19 10:32:13;;;;;;;;;42.50;36.75;;;;;13.09;63.66;102529.69;5089379;27;61997;-74
2022/01/19 10:34:39;;;;;;;;;51.75;36.50;;;;;13.06;63.60;102537.38;5092864;27;62192;-74
2022/01/19 10:37:04;;;;;;;;;48.50;38.00;;;;;13.04;63.82;102536.38;5090553;27;61960;-74
2022/01/19 10:40:00;;;;;;;;;56.75;39.50;;;;;13.08;64.04;102536.66;5089470;27;62067;-74
2022/01/19 10:42:27;;;;;;;;;55.75;40.50;;;;;13.04;63.74;102532.00;5089334;27;61926;-73
2022/01/19 10:44:58;;;;;;;;;55.50;40.50;;;;;13.07;64.05;102539.22;5093132;27;62135;-74
2022/01/19 10:47:42;;;;;;;;;50.75;38.25;;;;;13.08;63.94;102531.38;5088757;27;62269;-74
2022/01/19 10:50:13;;;;;;;;;41.25;36.25;;;;;13.05;63.77;102525.94;5092817;27;61761;-74
2022/01/19 10:52:42;;;;;;;;;51.25;39.00;;;;;13.05;64.16;102525.94;5091924;27;62107;-74
2022/01/19 10:55:19;;;;;;;;;53.25;38.25;;;;;13.12;64.31;102524.56;5071356;28;61908;-73
2022/01/19 10:57:45;;;;;;;;;59.25;44.50;;;;;13.16;63.92;102521.31;5074779;27;62027;-73
2022/01/19 11:00:24;;;;;;;;;61.50;45.00;;;;;13.10;63.65;102518.28;5077198;27;61917;-74
2022/01/19 11:02:53;;;;;;;;;67.25;48.25;;;;;13.09;64.17;102508.59;5089840;27;62013;-73
2022/01/19 11:05:43;;;;;;;;;59.50;42.00;;;;;13.15;64.49;102508.94;5083279;27;61947;-74
2022/01/19 11:08:09;;;;;;;;;65.00;47.75;;;;;13.23;64.28;102502.41;5083175;28;61829;-75
2022/01/19 11:10:34;;;;;;;;;72.75;47.75;;;;;13.28;63.89;102506.28;5082996;27;61888;-74
2022/01/19 11:13:00;;;;;;;;;63.25;49.50;;;;;13.35;63.79;102509.31;5083876;27;61910;-74
2022/01/19 11:15:25;;;;;;;;;65.25;50.00;;;;;13.35;64.05;102504.03;5084362;27;61865;-74
2022/01/19 11:17:51;;;;;;;;;69.00;48.75;;;;;13.24;63.91;102501.59;5082230;28;63702;-74
2022/01/19 11:20:26;;;;;;;;;56.00;45.00;;;;;13.32;63.80;102493.28;5083202;27;61755;-74
2022/01/19 11:23:07;;;;;;;;;60.75;48.75;;;;;13.31;64.05;102486.19;5084173;27;61805;-74
2022/01/19 11:26:04;;;;;;;;;65.75;47.00;;;;;13.27;64.59;102499.16;5081752;28;62164;-75
2022/01/19 11:28:44;;;;;;;;;67.00;45.75;;;;;13.28;64.42;102492.13;5083688;28;62788;-74
2022/01/19 11:31:14;;;;;;;;;57.75;47.00;;;;;13.33;64.62;102488.09;5083804;27;61855;-74
2022/01/19 11:33:43;;;;;;;;;65.00;49.00;;;;;13.35;64.29;102485.56;5082237;28;61958;-74
2022/01/19 11:36:35;;;;;;;;;59.00;46.25;;;;;13.38;64.16;102480.47;5081586;28;62121;-74
2022/01/19 11:39:21;;;;;;;;;62.25;47.00;;;;;13.38;64.36;102484.00;5082959;27;61838;-75
2022/01/19 11:42:01;;;;;;;;;59.25;47.25;;;;;13.39;64.03;102484.91;5083119;27;62080;-75
2022/01/19 11:44:36;;;;;;;;;60.50;46.00;;;;;13.40;64.50;102482.38;5083882;28;61857;-75
2022/01/19 11:47:16;;;;;;;;;64.25;46.25;;;;;13.36;63.84;102476.81;5098366;27;62187;-77
2022/01/19 11:49:52;;;;;;;;;56.50;40.75;;;;;13.38;64.03;102468.19;5079191;28;62259;-75
2022/01/19 11:52:20;;;;;;;;;61.00;48.00;;;;;13.42;64.34;102464.00;5079768;28;62024;-76
2022/01/19 11:54:47;;;;;;;;;51.75;41.50;;;;;13.36;64.16;102459.25;5081190;28;61749;-76
2022/01/19 11:57:22;;;;;;;;;53.00;40.00;;;;;13.45;64.52;102453.63;5076945;28;62082;-77
2022/01/19 11:59:47;;;;;;;;;57.25;41.25;;;;;13.44;64.01;102454.47;5094960;27;65032;-74
2022/01/19 12:02:26;;;;;;;;;59.75;42.50;;;;;13.42;63.90;102462.28;5062048;28;62210;-76
2022/01/19 12:04:54;;;;;;;;;53.50;37.75;;;;;13.41;63.65;102460.47;5063138;28;61991;-77
2022/01/19 12:07:52;;;;;;;;;54.25;40.00;;;;;13.48;64.02;102457.38;5062989;28;61869;-77
2022/01/19 12:10:38;;;;;;;;;41.75;34.00;;;;;13.52;63.80;102452.25;5062115;28;62778;-74
2022/01/19 12:13:34;;;;;;;;;49.00;41.25;;;;;13.53;63.69;102451.44;5067254;27;61794;-73
2022/01/19 12:16:14;;;;;;;;;49.25;33.50;;;;;13.56;63.74;102441.06;5082792;27;61787;-75
2022/01/19 12:18:51;;;;;;;;;47.25;39.50;;;;;13.60;63.80;102436.06;5115405;27;62339;-74
2022/01/19 12:21:31;;;;;;;;;53.00;36.25;;;;;13.62;63.77;102426.50;5080024;27;62861;-75
2022/01/19 12:24:29;;;;;;;;;39.00;35.00;;;;;13.60;63.48;102424.59;5093559;27;62066;-76
2022/01/19 12:27:00;;;;;;;;;56.50;41.00;;;;;13.63;63.52;102425.69;5082130;27;61836;-74
2022/01/19 12:29:37;;;;;;;;;51.50;38.25;;;;;13.59;64.02;102425.44;5083185;28;62287;-77
2022/01/19 12:32:17;;;;;;;;;53.00;37.00;;;;;13.64;63.53;102414.31;5081241;27;61981;-75
2022/01/19 12:34:44;;;;;;;;;38.75;37.25;;;;;13.65;63.78;102418.78;5082807;28;61925;-76
2022/01/19 12:37:12;;;;;;;;;41.25;37.25;;;;;13.68;63.66;102415.41;5079614;28;61892;-80
2022/01/19 12:39:44;;;;;;;;;43.50;36.00;;;;;13.67;63.35;102414.50;5084970;27;61903;-79
2022/01/19 12:42:31;;;;;;;;;42.00;37.50;;;;;13.69;63.31;102404.94;5080326;28;62039;-79
2022/01/19 12:44:58;;;;;;;;;41.00;35.50;;;;;13.73;63.50;102421.84;5077395;28;61994;-79
2022/01/19 12:47:27;;;;;;;;;46.50;36.25;;;;;13.74;63.41;102417.50;5077794;28;61849;-79
2022/01/19 12:49:58;;;;;;;;;36.75;33.75;;;;;13.75;63.24;102408.75;5078277;28;61740;-79